sensor_id;sensor_type;location;lat;lon;timestamp;temperature;humidity
10873;DHT22;34586;53.616;10.032;2022-09-09T00:00:24;14.40;99.90
10873;DHT22;34586;53.616;10.032;2022-09-09T00:05:59;14.40;99.90
10873;DHT22;34586;53.616;10.032;2022-09-09T00:08:39;14.50;99.90
10873;DHT22;34586;53.616;10.032;2022-09-09T00:11:09;14.50;99.90
10873;DHT22;34586;53.616;10.032;2022-09-09T00:13:46;14.50;99.90
10873;DHT22;34586;53.616;10.032;2022-09-09T00:16:22;14.60;99.90
10873;DHT22;34586;53.616;10.032;2022-09-09T00:19:14;14.60;99.90
10873;DHT22;34586;53.616;10.032;2022-09-09T00:22:18;14.70;99.90
10873;DHT22;34586;53.616;10.032;2022-09-09T00:24:46;14.70;99.90
10873;DHT22;34586;53.616;10.032;2022-09-09T00:27:19;14.70;99.90
10873;DHT22;34586;53.616;10.032;2022-09-09T00:29:52;14.80;99.90
10873;DHT22;34586;53.616;10.032;2022-09-09T00:32:20;14.80;99.90
10873;DHT22;34586;53.616;10.032;2022-09-09T00:34:53;14.80;99.90
10873;DHT22;34586;53.616;10.032;2022-09-09T00:37:22;14.80;99.90
10873;DHT22;34586;53.616;10.032;2022-09-09T00:39:52;14.90;99.90
10873;DHT22;34586;53.616;10.032;2022-09-09T00:42:25;14.90;99.90
10873;DHT22;34586;53.616;10.032;2022-09-09T00:44:59;14.90;99.90
10873;DHT22;34586;53.616;10.032;2022-09-09T00:47:46;14.90;99.90
10873;DHT22;34586;53.616;10.032;2022-09-09T00:50:17;14.90;99.90
10873;DHT22;34586;53.616;10.032;2022-09-09T00:58:12;15.00;99.90
10873;DHT22;34586;53.616;10.032;2022-09-09T01:00:46;15.10;99.90
10873;DHT22;34586;53.616;10.032;2022-09-09T01:03:56;15.10;99.90
10873;DHT22;34586;53.616;10.032;2022-09-09T01:06:31;15.10;99.90
10873;DHT22;34586;53.616;10.032;2022-09-09T01:09:32;15.10;99.90
10873;DHT22;34586;53.616;10.032;2022-09-09T01:12:30;15.20;99.90
10873;DHT22;34586;53.616;10.032;2022-09-09T01:15:22;15.20;99.90
10873;DHT22;34586;53.616;10.032;2022-09-09T01:18:06;15.20;99.90
10873;DHT22;34586;53.616;10.032;2022-09-09T01:26:27;15.20;99.90
10873;DHT22;34586;53.616;10.032;2022-09-09T01:28:55;15.10;99.90
10873;DHT22;34586;53.616;10.032;2022-09-09T01:31:38;15.10;99.90
10873;DHT22;34586;53.616;10.032;2022-09-09T01:34:13;15.20;99.90
10873;DHT22;34586;53.616;10.032;2022-09-09T01:37:05;15.10;99.90
10873;DHT22;34586;53.616;10.032;2022-09-09T01:39:30;15.10;99.90
10873;DHT22;34586;53.616;10.032;2022-09-09T01:41:56;15.10;99.90
10873;DHT22;34586;53.616;10.032;2022-09-09T01:44:22;15.10;99.90
10873;DHT22;34586;53.616;10.032;2022-09-09T01:46:49;15.10;99.90
10873;DHT22;34586;53.616;10.032;2022-09-09T01:49:16;15.10;99.90
10873;DHT22;34586;53.616;10.032;2022-09-09T01:51:48;15.10;99.90
10873;DHT22;34586;53.616;10.032;2022-09-09T01:54:14;15.10;99.90
10873;DHT22;34586;53.616;10.032;2022-09-09T01:56:52;15.00;99.90
10873;DHT22;34586;53.616;10.032;2022-09-09T02:02:18;15.00;99.90
10873;DHT22;34586;53.616;10.032;2022-09-09T02:04:49;15.00;99.90
10873;DHT22;34586;53.616;10.032;2022-09-09T02:07:38;15.00;99.90
10873;DHT22;34586;53.616;10.032;2022-09-09T02:10:16;15.00;99.90
10873;DHT22;34586;53.616;10.032;2022-09-09T02:12:47;15.00;99.90
10873;DHT22;34586;53.616;10.032;2022-09-09T02:15:22;14.90;99.90
10873;DHT22;34586;53.616;10.032;2022-09-09T02:17:50;14.90;99.90
10873;DHT22;34586;53.616;10.032;2022-09-09T02:20:18;14.80;99.90
10873;DHT22;34586;53.616;10.032;2022-09-09T02:22:48;14.90;99.90
10873;DHT22;34586;53.616;10.032;2022-09-09T02:25:17;14.80;99.90
10873;DHT22;34586;53.616;10.032;2022-09-09T02:27:45;14.80;99.90
10873;DHT22;34586;53.616;10.032;2022-09-09T02:30:12;14.70;99.90
10873;DHT22;34586;53.616;10.032;2022-09-09T02:32:38;14.70;99.90
10873;DHT22;34586;53.616;10.032;2022-09-09T02:35:09;14.60;99.90
10873;DHT22;34586;53.616;10.032;2022-09-09T02:37:39;14.60;99.90
10873;DHT22;34586;53.616;10.032;2022-09-09T02:40:07;14.60;99.90
10873;DHT22;34586;53.616;10.032;2022-09-09T02:42:42;14.60;99.90
10873;DHT22;34586;53.616;10.032;2022-09-09T02:45:10;14.70;99.90
10873;DHT22;34586;53.616;10.032;2022-09-09T02:50:33;15.00;99.90
10873;DHT22;34586;53.616;10.032;2022-09-09T02:53:20;14.70;99.90
10873;DHT22;34586;53.616;10.032;2022-09-09T02:55:52;14.70;99.90
10873;DHT22;34586;53.616;10.032;2022-09-09T02:58:20;14.70;99.90
10873;DHT22;34586;53.616;10.032;2022-09-09T03:00:48;14.70;99.90
10873;DHT22;34586;53.616;10.032;2022-09-09T03:03:15;14.70;99.90
10873;DHT22;34586;53.616;10.032;2022-09-09T03:05:42;14.60;99.90
10873;DHT22;34586;53.616;10.032;2022-09-09T03:08:07;14.60;99.90
10873;DHT22;34586;53.616;10.032;2022-09-09T03:10:33;14.60;99.90
10873;DHT22;34586;53.616;10.032;2022-09-09T03:13:00;14.60;99.90
10873;DHT22;34586;53.616;10.032;2022-09-09T03:15:25;14.60;99.90
10873;DHT22;34586;53.616;10.032;2022-09-09T03:17:56;14.60;99.90
10873;DHT22;34586;53.616;10.032;2022-09-09T03:20:23;14.60;99.90
10873;DHT22;34586;53.616;10.032;2022-09-09T03:22:49;14.60;99.90
10873;DHT22;34586;53.616;10.032;2022-09-09T03:25:15;14.60;99.90
10873;DHT22;34586;53.616;10.032;2022-09-09T03:27:40;14.60;99.90
10873;DHT22;34586;53.616;10.032;2022-09-09T03:30:06;14.50;99.90
10873;DHT22;34586;53.616;10.032;2022-09-09T03:32:32;14.50;99.90
10873;DHT22;34586;53.616;10.032;2022-09-09T03:34:58;14.40;99.90
10873;DHT22;34586;53.616;10.032;2022-09-09T03:37:23;14.40;99.90
10873;DHT22;34586;53.616;10.032;2022-09-09T03:39:49;14.40;99.90
10873;DHT22;34586;53.616;10.032;2022-09-09T03:42:15;14.40;99.90
10873;DHT22;34586;53.616;10.032;2022-09-09T03:44:45;14.30;99.90
10873;DHT22;34586;53.616;10.032;2022-09-09T03:47:14;14.30;99.90
10873;DHT22;34586;53.616;10.032;2022-09-09T03:49:40;14.20;99.90
10873;DHT22;34586;53.616;10.032;2022-09-09T03:52:05;14.20;99.90
10873;DHT22;34586;53.616;10.032;2022-09-09T03:54:31;14.20;99.90
10873;DHT22;34586;53.616;10.032;2022-09-09T03:56:56;14.20;99.90
10873;DHT22;34586;53.616;10.032;2022-09-09T03:59:23;14.20;99.90
10873;DHT22;34586;53.616;10.032;2022-09-09T04:01:48;14.20;99.90
10873;DHT22;34586;53.616;10.032;2022-09-09T04:04:14;14.20;99.90
10873;DHT22;34586;53.616;10.032;2022-09-09T04:06:39;14.20;99.90
10873;DHT22;34586;53.616;10.032;2022-09-09T04:09:05;14.20;99.90
10873;DHT22;34586;53.616;10.032;2022-09-09T04:11:31;14.20;99.90
10873;DHT22;34586;53.616;10.032;2022-09-09T04:13:56;14.20;99.90
10873;DHT22;34586;53.616;10.032;2022-09-09T04:16:22;14.20;99.90
10873;DHT22;34586;53.616;10.032;2022-09-09T04:18:47;14.30;99.90
10873;DHT22;34586;53.616;10.032;2022-09-09T04:21:13;14.20;99.90
10873;DHT22;34586;53.616;10.032;2022-09-09T04:23:39;14.20;99.90
10873;DHT22;34586;53.616;10.032;2022-09-09T04:26:05;14.20;99.90
10873;DHT22;34586;53.616;10.032;2022-09-09T04:28:33;14.20;99.90
10873;DHT22;34586;53.616;10.032;2022-09-09T04:31:07;14.20;99.90
10873;DHT22;34586;53.616;10.032;2022-09-09T04:33:34;14.20;99.90
10873;DHT22;34586;53.616;10.032;2022-09-09T04:36:00;14.20;99.90
10873;DHT22;34586;53.616;10.032;2022-09-09T04:38:25;14.10;99.90
10873;DHT22;34586;53.616;10.032;2022-09-09T04:40:52;14.10;99.90
10873;DHT22;34586;53.616;10.032;2022-09-09T04:43:20;14.10;99.90
10873;DHT22;34586;53.616;10.032;2022-09-09T04:45:50;14.10;99.90
10873;DHT22;34586;53.616;10.032;2022-09-09T04:48:17;14.10;99.90
10873;DHT22;34586;53.616;10.032;2022-09-09T04:50:42;14.10;99.90
10873;DHT22;34586;53.616;10.032;2022-09-09T04:53:08;14.10;99.90
10873;DHT22;34586;53.616;10.032;2022-09-09T04:55:34;14.10;99.90
10873;DHT22;34586;53.616;10.032;2022-09-09T04:58:07;14.10;99.90
10873;DHT22;34586;53.616;10.032;2022-09-09T05:00:34;14.10;99.90
10873;DHT22;34586;53.616;10.032;2022-09-09T05:03:05;14.20;99.90
10873;DHT22;34586;53.616;10.032;2022-09-09T05:05:31;14.20;99.90
10873;DHT22;34586;53.616;10.032;2022-09-09T05:08:05;14.20;99.90
10873;DHT22;34586;53.616;10.032;2022-09-09T05:10:31;14.20;99.90
10873;DHT22;34586;53.616;10.032;2022-09-09T05:12:57;14.20;99.90
10873;DHT22;34586;53.616;10.032;2022-09-09T05:15:23;14.20;99.90
10873;DHT22;34586;53.616;10.032;2022-09-09T05:17:48;14.20;99.90
10873;DHT22;34586;53.616;10.032;2022-09-09T05:20:14;14.20;99.90
10873;DHT22;34586;53.616;10.032;2022-09-09T05:22:39;14.20;99.90
10873;DHT22;34586;53.616;10.032;2022-09-09T05:25:06;14.10;99.90
10873;DHT22;34586;53.616;10.032;2022-09-09T05:27:34;14.10;99.90
10873;DHT22;34586;53.616;10.032;2022-09-09T05:30:00;14.00;99.90
10873;DHT22;34586;53.616;10.032;2022-09-09T05:32:26;14.00;99.90
10873;DHT22;34586;53.616;10.032;2022-09-09T05:34:51;14.00;99.90
10873;DHT22;34586;53.616;10.032;2022-09-09T05:37:18;14.00;99.90
10873;DHT22;34586;53.616;10.032;2022-09-09T05:39:43;14.00;99.90
10873;DHT22;34586;53.616;10.032;2022-09-09T05:42:09;14.00;99.90
10873;DHT22;34586;53.616;10.032;2022-09-09T05:44:35;14.00;99.90
10873;DHT22;34586;53.616;10.032;2022-09-09T05:47:00;14.10;99.90
10873;DHT22;34586;53.616;10.032;2022-09-09T05:49:26;14.10;99.90
10873;DHT22;34586;53.616;10.032;2022-09-09T05:51:52;14.10;99.90
10873;DHT22;34586;53.616;10.032;2022-09-09T05:54:18;14.10;99.90
10873;DHT22;34586;53.616;10.032;2022-09-09T05:56:44;14.20;99.90
10873;DHT22;34586;53.616;10.032;2022-09-09T05:59:10;14.30;99.90
10873;DHT22;34586;53.616;10.032;2022-09-09T06:01:37;14.30;99.90
10873;DHT22;34586;53.616;10.032;2022-09-09T06:04:06;14.30;99.90
10873;DHT22;34586;53.616;10.032;2022-09-09T06:06:33;14.40;99.90
10873;DHT22;34586;53.616;10.032;2022-09-09T06:09:03;14.40;99.90
10873;DHT22;34586;53.616;10.032;2022-09-09T06:11:32;14.50;99.90
10873;DHT22;34586;53.616;10.032;2022-09-09T06:13:58;14.60;99.90
10873;DHT22;34586;53.616;10.032;2022-09-09T06:16:25;14.70;99.90
10873;DHT22;34586;53.616;10.032;2022-09-09T06:18:53;14.90;99.90
10873;DHT22;34586;53.616;10.032;2022-09-09T06:21:31;15.00;99.90
10873;DHT22;34586;53.616;10.032;2022-09-09T06:23:58;15.10;99.90
10873;DHT22;34586;53.616;10.032;2022-09-09T06:26:27;15.10;99.90
10873;DHT22;34586;53.616;10.032;2022-09-09T06:28:54;15.20;99.90
10873;DHT22;34586;53.616;10.032;2022-09-09T06:31:21;15.30;99.90
10873;DHT22;34586;53.616;10.032;2022-09-09T06:33:51;15.30;99.90
10873;DHT22;34586;53.616;10.032;2022-09-09T06:36:38;15.30;99.90
10873;DHT22;34586;53.616;10.032;2022-09-09T06:39:05;15.30;99.90
10873;DHT22;34586;53.616;10.032;2022-09-09T06:41:31;15.30;99.90
10873;DHT22;34586;53.616;10.032;2022-09-09T06:43:58;15.30;99.90
10873;DHT22;34586;53.616;10.032;2022-09-09T06:46:26;15.30;99.90
10873;DHT22;34586;53.616;10.032;2022-09-09T06:48:56;15.40;99.90
10873;DHT22;34586;53.616;10.032;2022-09-09T06:51:33;15.50;99.90
10873;DHT22;34586;53.616;10.032;2022-09-09T06:54:00;15.50;99.90
10873;DHT22;34586;53.616;10.032;2022-09-09T06:56:33;15.60;99.90
10873;DHT22;34586;53.616;10.032;2022-09-09T06:59:02;15.60;99.90
10873;DHT22;34586;53.616;10.032;2022-09-09T07:01:30;15.70;99.90
10873;DHT22;34586;53.616;10.032;2022-09-09T07:03:58;15.90;99.90
10873;DHT22;34586;53.616;10.032;2022-09-09T07:06:31;15.70;99.90
10873;DHT22;34586;53.616;10.032;2022-09-09T07:08:59;15.80;99.90
10873;DHT22;34586;53.616;10.032;2022-09-09T07:11:28;15.80;99.90
10873;DHT22;34586;53.616;10.032;2022-09-09T07:13:54;15.90;99.90
10873;DHT22;34586;53.616;10.032;2022-09-09T07:16:21;16.10;99.90
10873;DHT22;34586;53.616;10.032;2022-09-09T07:18:51;16.20;99.90
10873;DHT22;34586;53.616;10.032;2022-09-09T07:21:18;16.40;99.90
10873;DHT22;34586;53.616;10.032;2022-09-09T07:23:44;16.60;99.90
10873;DHT22;34586;53.616;10.032;2022-09-09T07:26:15;16.80;99.90
10873;DHT22;34586;53.616;10.032;2022-09-09T07:28:41;16.90;99.90
10873;DHT22;34586;53.616;10.032;2022-09-09T07:31:24;16.90;99.90
10873;DHT22;34586;53.616;10.032;2022-09-09T07:33:51;16.90;99.90
10873;DHT22;34586;53.616;10.032;2022-09-09T07:36:25;16.90;99.90
10873;DHT22;34586;53.616;10.032;2022-09-09T07:38:56;16.90;99.90
10873;DHT22;34586;53.616;10.032;2022-09-09T07:41:31;16.90;99.90
10873;DHT22;34586;53.616;10.032;2022-09-09T07:43:59;16.90;99.90
10873;DHT22;34586;53.616;10.032;2022-09-09T07:46:26;16.90;99.90
10873;DHT22;34586;53.616;10.032;2022-09-09T07:48:54;17.00;99.90
10873;DHT22;34586;53.616;10.032;2022-09-09T07:53:48;17.30;99.90
10873;DHT22;34586;53.616;10.032;2022-09-09T07:56:17;17.50;99.90
10873;DHT22;34586;53.616;10.032;2022-09-09T07:58:46;17.60;99.90
10873;DHT22;34586;53.616;10.032;2022-09-09T08:01:16;17.70;99.90
10873;DHT22;34586;53.616;10.032;2022-09-09T08:03:44;17.80;99.90
10873;DHT22;34586;53.616;10.032;2022-09-09T08:06:10;17.80;99.90
10873;DHT22;34586;53.616;10.032;2022-09-09T08:08:38;17.80;99.90
10873;DHT22;34586;53.616;10.032;2022-09-09T08:11:10;17.70;99.90
10873;DHT22;34586;53.616;10.032;2022-09-09T08:13:37;17.70;99.90
10873;DHT22;34586;53.616;10.032;2022-09-09T08:16:14;17.70;99.90
10873;DHT22;34586;53.616;10.032;2022-09-09T08:18:41;17.90;99.90
10873;DHT22;34586;53.616;10.032;2022-09-09T08:21:23;17.90;99.90
10873;DHT22;34586;53.616;10.032;2022-09-09T08:23:51;17.90;99.90
10873;DHT22;34586;53.616;10.032;2022-09-09T08:26:19;17.90;99.90
10873;DHT22;34586;53.616;10.032;2022-09-09T08:28:50;18.00;99.90
10873;DHT22;34586;53.616;10.032;2022-09-09T08:31:18;18.00;99.90
10873;DHT22;34586;53.616;10.032;2022-09-09T08:33:44;18.10;99.90
10873;DHT22;34586;53.616;10.032;2022-09-09T08:36:18;18.10;99.90
10873;DHT22;34586;53.616;10.032;2022-09-09T08:38:46;18.10;99.90
10873;DHT22;34586;53.616;10.032;2022-09-09T08:55:25;18.10;99.90
10873;DHT22;34586;53.616;10.032;2022-09-09T08:57:57;18.20;97.60
10873;DHT22;34586;53.616;10.032;2022-09-09T09:00:34;18.20;93.70
10873;DHT22;34586;53.616;10.032;2022-09-09T09:05:57;18.20;71.60
10873;DHT22;34586;53.616;10.032;2022-09-09T09:08:36;18.20;73.70
10873;DHT22;34586;53.616;10.032;2022-09-09T09:11:06;18.30;94.60
10873;DHT22;34586;53.616;10.032;2022-09-09T09:13:40;18.50;78.80
10873;DHT22;34586;53.616;10.032;2022-09-09T09:16:27;18.50;80.50
10873;DHT22;34586;53.616;10.032;2022-09-09T09:18:57;18.70;66.10
10873;DHT22;34586;53.616;10.032;2022-09-09T09:23:59;18.80;1.00
10873;DHT22;34586;53.616;10.032;2022-09-09T09:26:38;18.80;1.00
10873;DHT22;34586;53.616;10.032;2022-09-09T09:29:25;18.70;1.00
10873;DHT22;34586;53.616;10.032;2022-09-09T09:31:53;18.70;1.00
10873;DHT22;34586;53.616;10.032;2022-09-09T09:34:22;19.10;30.00
10873;DHT22;34586;53.616;10.032;2022-09-09T09:36:56;18.90;7.10
10873;DHT22;34586;53.616;10.032;2022-09-09T09:39:24;19.10;1.00
10873;DHT22;34586;53.616;10.032;2022-09-09T09:41:51;19.20;1.00
10873;DHT22;34586;53.616;10.032;2022-09-09T09:44:26;19.30;1.00
10873;DHT22;34586;53.616;10.032;2022-09-09T09:47:04;19.30;1.00
10873;DHT22;34586;53.616;10.032;2022-09-09T09:49:30;19.40;1.00
10873;DHT22;34586;53.616;10.032;2022-09-09T09:52:01;19.60;1.00
10873;DHT22;34586;53.616;10.032;2022-09-09T09:54:41;19.70;1.00
10873;DHT22;34586;53.616;10.032;2022-09-09T09:57:12;20.00;1.00
10873;DHT22;34586;53.616;10.032;2022-09-09T09:59:39;20.00;1.00
10873;DHT22;34586;53.616;10.032;2022-09-09T10:02:24;20.30;99.90
10873;DHT22;34586;53.616;10.032;2022-09-09T10:08:11;20.30;99.90
10873;DHT22;34586;53.616;10.032;2022-09-09T10:16:25;20.30;99.90
10873;DHT22;34586;53.616;10.032;2022-09-09T10:22:21;20.00;1.00
10873;DHT22;34586;53.616;10.032;2022-09-09T10:25:19;19.80;99.90
10873;DHT22;34586;53.616;10.032;2022-09-09T10:33:37;19.70;99.90
10873;DHT22;34586;53.616;10.032;2022-09-09T10:36:23;19.70;1.00
10873;DHT22;34586;53.616;10.032;2022-09-09T10:42:03;19.50;1.00
10873;DHT22;34586;53.616;10.032;2022-09-09T10:47:23;19.30;99.90
10873;DHT22;34586;53.616;10.032;2022-09-09T10:50:03;19.40;1.00
10873;DHT22;34586;53.616;10.032;2022-09-09T10:55:37;19.50;1.00
10873;DHT22;34586;53.616;10.032;2022-09-09T10:58:05;19.50;16.10
10873;DHT22;34586;53.616;10.032;2022-09-09T11:00:42;19.60;99.90
10873;DHT22;34586;53.616;10.032;2022-09-09T11:03:24;19.70;1.00
10873;DHT22;34586;53.616;10.032;2022-09-09T11:06:18;19.90;1.00
10873;DHT22;34586;53.616;10.032;2022-09-09T11:08:45;20.10;99.90
10873;DHT22;34586;53.616;10.032;2022-09-09T11:11:27;20.30;1.00
10873;DHT22;34586;53.616;10.032;2022-09-09T11:16:30;20.50;99.90
10873;DHT22;34586;53.616;10.032;2022-09-09T11:21:55;20.30;99.90
10873;DHT22;34586;53.616;10.032;2022-09-09T11:27:28;20.30;99.90
10873;DHT22;34586;53.616;10.032;2022-09-09T11:30:15;20.30;99.90
10873;DHT22;34586;53.616;10.032;2022-09-09T11:40:46;21.00;99.90
10873;DHT22;34586;53.616;10.032;2022-09-09T11:43:30;21.00;1.00
10873;DHT22;34586;53.616;10.032;2022-09-09T11:45:58;21.20;1.00
10873;DHT22;34586;53.616;10.032;2022-09-09T11:48:26;21.20;99.90
10873;DHT22;34586;53.616;10.032;2022-09-09T11:53:28;21.30;99.90
10873;DHT22;34586;53.616;10.032;2022-09-09T11:58:36;21.20;99.90
10873;DHT22;34586;53.616;10.032;2022-09-09T12:01:16;21.30;1.00
10873;DHT22;34586;53.616;10.032;2022-09-09T12:04:10;21.40;65.70
10873;DHT22;34586;53.616;10.032;2022-09-09T12:06:46;21.40;1.00
10873;DHT22;34586;53.616;10.032;2022-09-09T12:09:31;21.40;99.90
10873;DHT22;34586;53.616;10.032;2022-09-09T12:14:44;20.90;1.00
10873;DHT22;34586;53.616;10.032;2022-09-09T12:17:21;20.70;1.00
10873;DHT22;34586;53.616;10.032;2022-09-09T12:19:48;20.60;99.90
10873;DHT22;34586;53.616;10.032;2022-09-09T12:22:38;20.60;99.90
10873;DHT22;34586;53.616;10.032;2022-09-09T12:30:48;20.30;1.00
10873;DHT22;34586;53.616;10.032;2022-09-09T12:33:18;20.30;1.00
10873;DHT22;34586;53.616;10.032;2022-09-09T12:35:48;20.20;99.90
10873;DHT22;34586;53.616;10.032;2022-09-09T12:38:22;20.30;1.00
10873;DHT22;34586;53.616;10.032;2022-09-09T12:40:56;20.40;99.90
10873;DHT22;34586;53.616;10.032;2022-09-09T12:43:24;20.50;51.90
10873;DHT22;34586;53.616;10.032;2022-09-09T12:45:53;20.70;99.90
10873;DHT22;34586;53.616;10.032;2022-09-09T12:48:27;20.70;99.90
10873;DHT22;34586;53.616;10.032;2022-09-09T12:50:53;20.80;61.40
10873;DHT22;34586;53.616;10.032;2022-09-09T12:53:33;20.70;1.00
10873;DHT22;34586;53.616;10.032;2022-09-09T12:56:07;20.80;60.60
10873;DHT22;34586;53.616;10.032;2022-09-09T12:58:36;20.80;99.90
10873;DHT22;34586;53.616;10.032;2022-09-09T13:01:04;20.70;99.90
10873;DHT22;34586;53.616;10.032;2022-09-09T13:03:31;20.60;99.90
10873;DHT22;34586;53.616;10.032;2022-09-09T13:06:23;20.50;2.20
10873;DHT22;34586;53.616;10.032;2022-09-09T13:08:53;20.30;1.00
10873;DHT22;34586;53.616;10.032;2022-09-09T13:13:54;20.00;1.00
10873;DHT22;34586;53.616;10.032;2022-09-09T13:16:29;19.80;99.90
10873;DHT22;34586;53.616;10.032;2022-09-09T13:19:01;19.70;1.00
10873;DHT22;34586;53.616;10.032;2022-09-09T13:21:37;19.50;1.00
10873;DHT22;34586;53.616;10.032;2022-09-09T13:24:57;19.40;1.00
10873;DHT22;34586;53.616;10.032;2022-09-09T13:26:57;19.20;1.00
10873;DHT22;34586;53.616;10.032;2022-09-09T13:29:23;19.10;1.00
10873;DHT22;34586;53.616;10.032;2022-09-09T13:31:48;19.10;1.00
10873;DHT22;34586;53.616;10.032;2022-09-09T13:34:30;19.10;1.00
10873;DHT22;34586;53.616;10.032;2022-09-09T13:37:00;19.00;1.00
10873;DHT22;34586;53.616;10.032;2022-09-09T13:39:32;19.00;1.00
10873;DHT22;34586;53.616;10.032;2022-09-09T13:41:58;18.90;1.00
10873;DHT22;34586;53.616;10.032;2022-09-09T13:44:27;18.90;1.00
10873;DHT22;34586;53.616;10.032;2022-09-09T13:47:06;18.90;1.00
10873;DHT22;34586;53.616;10.032;2022-09-09T13:49:41;18.80;1.00
10873;DHT22;34586;53.616;10.032;2022-09-09T13:52:17;18.70;1.00
10873;DHT22;34586;53.616;10.032;2022-09-09T13:54:48;18.60;56.00
10873;DHT22;34586;53.616;10.032;2022-09-09T13:57:24;18.50;99.90
10873;DHT22;34586;53.616;10.032;2022-09-09T13:59:51;18.40;99.90
10873;DHT22;34586;53.616;10.032;2022-09-09T14:02:17;18.30;99.90
10873;DHT22;34586;53.616;10.032;2022-09-09T14:04:43;18.30;99.90
10873;DHT22;34586;53.616;10.032;2022-09-09T14:07:12;18.10;99.90
10873;DHT22;34586;53.616;10.032;2022-09-09T14:09:38;18.00;99.90
10873;DHT22;34586;53.616;10.032;2022-09-09T14:12:04;18.00;99.90
10873;DHT22;34586;53.616;10.032;2022-09-09T14:14:30;17.90;99.90
10873;DHT22;34586;53.616;10.032;2022-09-09T14:16:56;17.80;99.90
10873;DHT22;34586;53.616;10.032;2022-09-09T14:19:21;17.80;99.90
10873;DHT22;34586;53.616;10.032;2022-09-09T14:21:47;17.70;99.90
10873;DHT22;34586;53.616;10.032;2022-09-09T14:24:14;17.70;99.90
10873;DHT22;34586;53.616;10.032;2022-09-09T14:26:39;17.70;99.90
10873;DHT22;34586;53.616;10.032;2022-09-09T14:29:06;17.70;99.90
10873;DHT22;34586;53.616;10.032;2022-09-09T14:31:31;17.60;99.90
10873;DHT22;34586;53.616;10.032;2022-09-09T14:33:57;17.60;99.90
10873;DHT22;34586;53.616;10.032;2022-09-09T14:36:24;17.70;99.90
10873;DHT22;34586;53.616;10.032;2022-09-09T14:38:50;17.60;99.90
10873;DHT22;34586;53.616;10.032;2022-09-09T14:41:17;17.60;99.90
10873;DHT22;34586;53.616;10.032;2022-09-09T14:43:44;17.60;99.90
10873;DHT22;34586;53.616;10.032;2022-09-09T14:46:15;17.60;99.90
10873;DHT22;34586;53.616;10.032;2022-09-09T14:48:41;17.70;99.90
10873;DHT22;34586;53.616;10.032;2022-09-09T14:51:16;17.60;99.90
10873;DHT22;34586;53.616;10.032;2022-09-09T14:53:43;17.60;99.90
10873;DHT22;34586;53.616;10.032;2022-09-09T14:56:15;17.60;99.90
10873;DHT22;34586;53.616;10.032;2022-09-09T14:58:41;17.50;99.90
10873;DHT22;34586;53.616;10.032;2022-09-09T15:01:09;17.50;99.90
10873;DHT22;34586;53.616;10.032;2022-09-09T15:03:36;17.40;99.90
10873;DHT22;34586;53.616;10.032;2022-09-09T15:06:11;17.40;99.90
10873;DHT22;34586;53.616;10.032;2022-09-09T15:08:38;17.30;99.90
10873;DHT22;34586;53.616;10.032;2022-09-09T15:11:05;17.30;99.90
10873;DHT22;34586;53.616;10.032;2022-09-09T15:13:36;17.30;99.90
10873;DHT22;34586;53.616;10.032;2022-09-09T15:16:14;17.30;99.90
10873;DHT22;34586;53.616;10.032;2022-09-09T15:18:40;17.30;99.90
10873;DHT22;34586;53.616;10.032;2022-09-09T15:21:15;17.30;99.90
10873;DHT22;34586;53.616;10.032;2022-09-09T15:23:42;17.40;99.90
10873;DHT22;34586;53.616;10.032;2022-09-09T15:26:09;17.40;99.90
10873;DHT22;34586;53.616;10.032;2022-09-09T15:28:36;17.40;99.90
10873;DHT22;34586;53.616;10.032;2022-09-09T15:31:09;17.50;99.90
10873;DHT22;34586;53.616;10.032;2022-09-09T15:33:35;17.50;99.90
10873;DHT22;34586;53.616;10.032;2022-09-09T15:36:23;17.60;99.90
10873;DHT22;34586;53.616;10.032;2022-09-09T15:38:50;17.50;99.90
10873;DHT22;34586;53.616;10.032;2022-09-09T15:41:16;17.50;99.90
10873;DHT22;34586;53.616;10.032;2022-09-09T15:43:47;17.60;99.90
10873;DHT22;34586;53.616;10.032;2022-09-09T15:46:23;17.60;99.90
10873;DHT22;34586;53.616;10.032;2022-09-09T15:48:49;17.70;99.90
10873;DHT22;34586;53.616;10.032;2022-09-09T15:51:16;17.80;99.90
10873;DHT22;34586;53.616;10.032;2022-09-09T15:53:42;17.90;99.90
10873;DHT22;34586;53.616;10.032;2022-09-09T15:56:08;17.90;99.90
10873;DHT22;34586;53.616;10.032;2022-09-09T15:58:34;18.00;99.90
10873;DHT22;34586;53.616;10.032;2022-09-09T16:01:09;18.00;99.90
10873;DHT22;34586;53.616;10.032;2022-09-09T16:03:35;18.10;99.90
10873;DHT22;34586;53.616;10.032;2022-09-09T16:06:02;18.10;99.90
10873;DHT22;34586;53.616;10.032;2022-09-09T16:08:39;18.20;99.90
10873;DHT22;34586;53.616;10.032;2022-09-09T16:11:07;18.20;99.90
10873;DHT22;34586;53.616;10.032;2022-09-09T16:13:35;18.30;99.90
10873;DHT22;34586;53.616;10.032;2022-09-09T16:16:01;18.30;99.90
10873;DHT22;34586;53.616;10.032;2022-09-09T16:18:43;18.30;99.90
10873;DHT22;34586;53.616;10.032;2022-09-09T16:21:23;18.30;99.90
10873;DHT22;34586;53.616;10.032;2022-09-09T16:23:55;18.30;99.90
10873;DHT22;34586;53.616;10.032;2022-09-09T16:26:22;18.30;99.90
10873;DHT22;34586;53.616;10.032;2022-09-09T16:28:48;18.30;99.90
10873;DHT22;34586;53.616;10.032;2022-09-09T16:31:19;18.20;99.90
10873;DHT22;34586;53.616;10.032;2022-09-09T16:33:45;18.20;99.90
10873;DHT22;34586;53.616;10.032;2022-09-09T16:36:16;18.10;99.90
10873;DHT22;34586;53.616;10.032;2022-09-09T16:38:42;18.00;99.90
10873;DHT22;34586;53.616;10.032;2022-09-09T16:41:09;18.00;99.90
10873;DHT22;34586;53.616;10.032;2022-09-09T16:43:36;18.00;99.90
10873;DHT22;34586;53.616;10.032;2022-09-09T16:46:03;17.90;99.90
10873;DHT22;34586;53.616;10.032;2022-09-09T16:48:36;17.80;99.90
10873;DHT22;34586;53.616;10.032;2022-09-09T16:51:06;17.70;99.90
10873;DHT22;34586;53.616;10.032;2022-09-09T16:53:34;17.70;99.90
10873;DHT22;34586;53.616;10.032;2022-09-09T16:56:07;17.70;99.90
10873;DHT22;34586;53.616;10.032;2022-09-09T16:58:33;17.60;99.90
10873;DHT22;34586;53.616;10.032;2022-09-09T17:01:00;17.60;99.90
10873;DHT22;34586;53.616;10.032;2022-09-09T17:03:27;17.50;99.90
10873;DHT22;34586;53.616;10.032;2022-09-09T17:05:52;17.40;99.90
10873;DHT22;34586;53.616;10.032;2022-09-09T17:08:18;17.40;99.90
10873;DHT22;34586;53.616;10.032;2022-09-09T17:10:44;17.30;99.90
10873;DHT22;34586;53.616;10.032;2022-09-09T17:13:10;16.70;99.90
10873;DHT22;34586;53.616;10.032;2022-09-09T17:15:41;17.20;99.90
10873;DHT22;34586;53.616;10.032;2022-09-09T17:18:11;17.10;99.90
10873;DHT22;34586;53.616;10.032;2022-09-09T17:20:38;17.00;99.90